BOE903 KPAE-KPAE
Flight info
| Callsign | BOE903 |
|---|---|
| Flight time | N/A |
| Altitude | 13000 |
| Route | PERLL TOU WAPTO ZEDAT ONPAE FISUS TAOMA WATTR WEBVE |
| Aircraft | B77W/H-SDE1E2E3FGHIJ2J3J4J5M1RWXY/LB1D1 |
Departure
| Time | 2026-05-08 02:26 |
|---|---|
| Airport | Seattle Paine Field International Airport (KPAE) |
Arrival
| Time | N/A |
|---|---|
| Airport | Seattle Paine Field International Airport (KPAE) |
| Time | Latitude | Longitude | Altitude | Speed | Heading |
|---|---|---|---|---|---|
| 2026-05-08 02:01 | 47.91681 | -122.27945 | 577 ft | 0 kts | 91° |
| 2026-05-08 02:15 | 47.91681 | -122.27953 | 576 ft | 4 kts | 91° |
| 2026-05-08 02:15 | 47.91681 | -122.28001 | 574 ft | 4 kts | 83° |
| 2026-05-08 02:16 | 47.91668 | -122.28044 | 571 ft | 4 kts | 41° |
| 2026-05-08 02:16 | 47.91643 | -122.28056 | 569 ft | 4 kts | 354° |
| 2026-05-08 02:16 | 47.91615 | -122.28053 | 567 ft | 4 kts | 359° |
| 2026-05-08 02:16 | 47.91594 | -122.28052 | 566 ft | 0 kts | 358° |
| 2026-05-08 02:20 | 47.91604 | -122.28052 | 566 ft | 4 kts | 0° |
| 2026-05-08 02:21 | 47.91648 | -122.28052 | 569 ft | 7 kts | 2° |
| 2026-05-08 02:21 | 47.91716 | -122.28049 | 574 ft | 11 kts | 2° |
| 2026-05-08 02:21 | 47.91812 | -122.28046 | 578 ft | 16 kts | 1° |
| 2026-05-08 02:21 | 47.91942 | -122.28045 | 578 ft | 20 kts | 0° |
| 2026-05-08 02:22 | 47.92065 | -122.28046 | 574 ft | 21 kts | 360° |
| 2026-05-08 02:22 | 47.92161 | -122.28129 | 560 ft | 21 kts | 281° |
| 2026-05-08 02:22 | 47.92159 | -122.28365 | 549 ft | 14 kts | 265° |
| 2026-05-08 02:22 | 47.92155 | -122.28429 | 552 ft | 0 kts | 264° |
| 2026-05-08 02:24 | 47.92155 | -122.28430 | 552 ft | 1 kts | 264° |
| 2026-05-08 02:25 | 47.92149 | -122.28484 | 556 ft | 8 kts | 255° |
| 2026-05-08 02:25 | 47.92111 | -122.28569 | 562 ft | 13 kts | 205° |
| 2026-05-08 02:25 | 47.91940 | -122.28582 | 570 ft | 52 kts | 179° |
| 2026-05-08 02:25 | 47.91262 | -122.28565 | 578 ft | 137 kts | 180° |
| 2026-05-08 02:26 | 47.90131 | -122.28545 | 903 ft | 176 kts | 181° |
| 2026-05-08 02:26 | 47.88934 | -122.28539 | 1892 ft | 179 kts | 179° |
| 2026-05-08 02:26 | 47.87651 | -122.28464 | 2729 ft | 200 kts | 178° |
| 2026-05-08 02:26 | 47.86131 | -122.28432 | 2955 ft | 236 kts | 186° |
| 2026-05-08 02:27 | 47.84524 | -122.29328 | 2976 ft | 255 kts | 212° |
| 2026-05-08 02:27 | 47.83026 | -122.30826 | 2963 ft | 262 kts | 215° |
| 2026-05-08 02:27 | 47.81522 | -122.32389 | 2961 ft | 262 kts | 215° |
| 2026-05-08 02:27 | 47.80051 | -122.33967 | 2952 ft | 262 kts | 221° |
| 2026-05-08 02:28 | 47.78995 | -122.36163 | 2949 ft | 263 kts | 250° |
| 2026-05-08 02:28 | 47.78653 | -122.38789 | 2961 ft | 264 kts | 264° |
| 2026-05-08 02:28 | 47.78454 | -122.41583 | 3139 ft | 290 kts | 260° |
| 2026-05-08 02:28 | 47.77613 | -122.44235 | 4671 ft | 291 kts | 230° |
| 2026-05-08 02:29 | 47.76126 | -122.45988 | 6550 ft | 277 kts | 212° |
| 2026-05-08 02:29 | 47.74504 | -122.47394 | 8076 ft | 275 kts | 211° |
| 2026-05-08 02:29 | 47.72977 | -122.48682 | 9207 ft | 282 kts | 211° |
| 2026-05-08 02:29 | 47.71157 | -122.50213 | 10506 ft | 289 kts | 211° |
| 2026-05-08 02:30 | 47.69818 | -122.51339 | 11208 ft | 303 kts | 211° |
| 2026-05-08 02:30 | 47.67848 | -122.52994 | 12182 ft | 320 kts | 211° |
| 2026-05-08 02:30 | 47.65886 | -122.54642 | 12818 ft | 335 kts | 211° |
| 2026-05-08 02:30 | 47.63847 | -122.56351 | 12957 ft | 338 kts | 211° |
| 2026-05-08 02:31 | 47.61847 | -122.58248 | 12966 ft | 337 kts | 221° |
| 2026-05-08 02:31 | 47.60290 | -122.60802 | 12964 ft | 336 kts | 238° |
| 2026-05-08 02:31 | 47.59211 | -122.63899 | 12968 ft | 338 kts | 249° |
| 2026-05-08 02:31 | 47.58432 | -122.67356 | 12973 ft | 375 kts | 256° |
| 2026-05-08 02:32 | 47.58067 | -122.71229 | 12972 ft | 381 kts | 268° |
| 2026-05-08 02:32 | 47.58240 | -122.75105 | 12952 ft | 381 kts | 279° |
| 2026-05-08 02:32 | 47.58951 | -122.78893 | 12966 ft | 382 kts | 291° |
| 2026-05-08 02:32 | 47.60141 | -122.82413 | 13001 ft | 382 kts | 299° |
| 2026-05-08 02:33 | 47.61481 | -122.85787 | 12977 ft | 381 kts | 300° |
| 2026-05-08 02:33 | 47.62817 | -122.89128 | 12969 ft | 381 kts | 300° |
| 2026-05-08 02:33 | 47.64173 | -122.92525 | 12963 ft | 381 kts | 300° |
| 2026-05-08 02:33 | 47.65525 | -122.95915 | 12951 ft | 382 kts | 300° |
| 2026-05-08 02:34 | 47.66880 | -122.99316 | 12959 ft | 382 kts | 300° |
| 2026-05-08 02:34 | 47.68224 | -123.02692 | 12952 ft | 382 kts | 300° |
| 2026-05-08 02:34 | 47.69565 | -123.06068 | 12954 ft | 383 kts | 300° |
| 2026-05-08 02:34 | 47.70921 | -123.09483 | 12954 ft | 383 kts | 300° |
| 2026-05-08 02:35 | 47.72272 | -123.12892 | 12955 ft | 384 kts | 300° |
| 2026-05-08 02:35 | 47.73626 | -123.16313 | 12951 ft | 384 kts | 300° |
| 2026-05-08 02:35 | 47.74969 | -123.19709 | 12954 ft | 382 kts | 300° |
| 2026-05-08 02:35 | 47.76323 | -123.23137 | 12959 ft | 384 kts | 300° |
| 2026-05-08 02:36 | 47.77650 | -123.26503 | 12960 ft | 382 kts | 300° |
| 2026-05-08 02:36 | 47.78992 | -123.29910 | 12960 ft | 382 kts | 300° |
| 2026-05-08 02:36 | 47.80335 | -123.33321 | 12956 ft | 382 kts | 300° |
| 2026-05-08 02:36 | 47.81679 | -123.36741 | 12955 ft | 382 kts | 300° |
| 2026-05-08 02:37 | 47.83020 | -123.40159 | 12955 ft | 383 kts | 300° |
| 2026-05-08 02:37 | 47.84362 | -123.43583 | 12952 ft | 383 kts | 300° |
| 2026-05-08 02:37 | 47.85703 | -123.47010 | 12952 ft | 382 kts | 300° |
| 2026-05-08 02:37 | 47.87029 | -123.50403 | 12953 ft | 384 kts | 300° |
| 2026-05-08 02:38 | 47.88370 | -123.53836 | 12954 ft | 384 kts | 300° |
| 2026-05-08 02:38 | 47.89714 | -123.57285 | 12954 ft | 383 kts | 300° |
| 2026-05-08 02:38 | 47.91040 | -123.60689 | 12957 ft | 384 kts | 300° |
| 2026-05-08 02:38 | 47.92379 | -123.64132 | 12962 ft | 383 kts | 300° |
| 2026-05-08 02:39 | 47.93718 | -123.67580 | 12964 ft | 384 kts | 299° |
| 2026-05-08 02:39 | 47.95049 | -123.71011 | 12963 ft | 383 kts | 299° |
| 2026-05-08 02:39 | 47.96382 | -123.74455 | 12965 ft | 383 kts | 299° |
| 2026-05-08 02:39 | 47.97710 | -123.77885 | 12968 ft | 382 kts | 299° |
| 2026-05-08 02:40 | 47.99039 | -123.81325 | 12960 ft | 383 kts | 299° |
| 2026-05-08 02:40 | 48.00364 | -123.84757 | 12952 ft | 382 kts | 299° |
| 2026-05-08 02:40 | 48.01675 | -123.88159 | 12944 ft | 383 kts | 299° |
| 2026-05-08 02:40 | 48.03006 | -123.91618 | 12943 ft | 383 kts | 299° |
| 2026-05-08 02:41 | 48.04334 | -123.95072 | 12945 ft | 383 kts | 299° |
| 2026-05-08 02:41 | 48.05654 | -123.98509 | 12942 ft | 384 kts | 299° |
| 2026-05-08 02:41 | 48.06980 | -124.01968 | 12947 ft | 384 kts | 299° |
| 2026-05-08 02:41 | 48.08315 | -124.05455 | 12956 ft | 384 kts | 299° |
| 2026-05-08 02:42 | 48.09629 | -124.08890 | 12957 ft | 390 kts | 299° |
| 2026-05-08 02:42 | 48.10983 | -124.12436 | 12956 ft | 393 kts | 299° |
| 2026-05-08 02:42 | 48.12338 | -124.15990 | 12954 ft | 394 kts | 299° |
| 2026-05-08 02:42 | 48.13706 | -124.19581 | 12953 ft | 394 kts | 299° |
| 2026-05-08 02:43 | 48.15067 | -124.23158 | 12953 ft | 394 kts | 299° |
| 2026-05-08 02:43 | 48.16428 | -124.26742 | 12966 ft | 394 kts | 299° |
| 2026-05-08 02:43 | 48.17778 | -124.30299 | 12956 ft | 393 kts | 299° |
| 2026-05-08 02:43 | 48.19117 | -124.33832 | 12976 ft | 394 kts | 299° |
| 2026-05-08 02:44 | 48.20475 | -124.37422 | 12959 ft | 394 kts | 299° |
| 2026-05-08 02:44 | 48.20888 | -124.38514 | 13034 ft | 394 kts | 299° |
| 2026-05-08 02:44 | 48.21593 | -124.40380 | 13001 ft | 394 kts | 299° |
| 2026-05-08 02:44 | 48.22645 | -124.43169 | 12993 ft | 390 kts | 298° |
| 2026-05-08 02:45 | 48.23763 | -124.46897 | 13007 ft | 389 kts | 289° |
| 2026-05-08 02:45 | 48.24403 | -124.50778 | 13006 ft | 387 kts | 279° |
| 2026-05-08 02:45 | 48.24573 | -124.54822 | 13006 ft | 387 kts | 269° |
| 2026-05-08 02:45 | 48.24257 | -124.58822 | 13005 ft | 388 kts | 259° |
| 2026-05-08 02:46 | 48.23465 | -124.62690 | 13006 ft | 390 kts | 249° |
| 2026-05-08 02:46 | 48.22222 | -124.66281 | 13006 ft | 388 kts | 238° |
| 2026-05-08 02:46 | 48.20563 | -124.69487 | 13008 ft | 390 kts | 227° |
| 2026-05-08 02:46 | 48.18548 | -124.72190 | 13007 ft | 392 kts | 217° |
| 2026-05-08 02:47 | 48.16219 | -124.74322 | 13007 ft | 393 kts | 207° |
| 2026-05-08 02:47 | 48.13659 | -124.75790 | 13006 ft | 394 kts | 197° |
| 2026-05-08 02:47 | 48.10965 | -124.76534 | 13007 ft | 396 kts | 186° |
| 2026-05-08 02:47 | 48.08201 | -124.76529 | 13006 ft | 397 kts | 175° |
| 2026-05-08 02:48 | 48.05489 | -124.75768 | 13005 ft | 399 kts | 165° |
| 2026-05-08 02:48 | 48.02917 | -124.74280 | 13005 ft | 400 kts | 154° |
| 2026-05-08 02:48 | 48.00555 | -124.72098 | 13004 ft | 401 kts | 143° |
| 2026-05-08 02:48 | 47.98491 | -124.69284 | 13005 ft | 404 kts | 133° |
| 2026-05-08 02:49 | 47.96818 | -124.65966 | 13003 ft | 403 kts | 122° |
| 2026-05-08 02:49 | 47.95469 | -124.62264 | 13008 ft | 404 kts | 117° |
| 2026-05-08 02:49 | 47.94200 | -124.58581 | 13008 ft | 404 kts | 117° |
| 2026-05-08 02:49 | 47.92910 | -124.54834 | 13006 ft | 403 kts | 118° |
| 2026-05-08 02:50 | 47.91430 | -124.51299 | 13009 ft | 404 kts | 127° |
| 2026-05-08 02:50 | 47.89539 | -124.48238 | 13006 ft | 401 kts | 138° |
| 2026-05-08 02:50 | 47.87364 | -124.45681 | 13006 ft | 402 kts | 146° |
| 2026-05-08 02:50 | 47.84988 | -124.43462 | 13006 ft | 400 kts | 151° |
| 2026-05-08 02:51 | 47.82469 | -124.41734 | 13005 ft | 399 kts | 160° |
| 2026-05-08 02:51 | 47.79859 | -124.40321 | 13009 ft | 399 kts | 161° |
| 2026-05-08 02:51 | 47.77243 | -124.38928 | 13009 ft | 399 kts | 161° |
| 2026-05-08 02:51 | 47.74656 | -124.37554 | 13009 ft | 400 kts | 161° |
| 2026-05-08 02:52 | 47.72025 | -124.36159 | 13009 ft | 399 kts | 161° |
| 2026-05-08 02:52 | 47.69428 | -124.34782 | 13009 ft | 400 kts | 161° |
| 2026-05-08 02:52 | 47.66794 | -124.33387 | 13007 ft | 399 kts | 162° |
| 2026-05-08 02:52 | 47.64172 | -124.32001 | 13007 ft | 399 kts | 162° |
| 2026-05-08 02:53 | 47.61571 | -124.30627 | 13007 ft | 399 kts | 161° |
| 2026-05-08 02:53 | 47.58949 | -124.29243 | 13007 ft | 400 kts | 162° |
| 2026-05-08 02:53 | 47.56318 | -124.27856 | 13007 ft | 399 kts | 161° |
| 2026-05-08 02:53 | 47.53702 | -124.26479 | 13007 ft | 399 kts | 162° |
| 2026-05-08 02:54 | 47.51117 | -124.25118 | 13007 ft | 399 kts | 161° |
| 2026-05-08 02:54 | 47.48494 | -124.23788 | 13006 ft | 399 kts | 165° |
| 2026-05-08 02:54 | 47.45780 | -124.23023 | 13006 ft | 397 kts | 175° |
| 2026-05-08 02:54 | 47.43023 | -124.22757 | 13008 ft | 397 kts | 178° |
| 2026-05-08 02:55 | 47.40264 | -124.22550 | 13007 ft | 397 kts | 178° |
| 2026-05-08 02:55 | 47.34747 | -124.22144 | 13007 ft | 397 kts | 178° |
| 2026-05-08 02:55 | 47.32000 | -124.21943 | 13007 ft | 397 kts | 178° |
| 2026-05-08 02:56 | 47.29239 | -124.21740 | 13007 ft | 397 kts | 178° |
| 2026-05-08 02:56 | 47.26479 | -124.21537 | 13007 ft | 397 kts | 179° |
| 2026-05-08 02:56 | 47.23722 | -124.21335 | 13007 ft | 397 kts | 178° |
| 2026-05-08 02:56 | 47.20972 | -124.21133 | 13007 ft | 397 kts | 178° |
| 2026-05-08 02:57 | 47.18211 | -124.20931 | 13007 ft | 397 kts | 178° |
| 2026-05-08 02:57 | 47.15487 | -124.20732 | 13007 ft | 396 kts | 178° |
| 2026-05-08 02:57 | 47.12731 | -124.20531 | 13007 ft | 397 kts | 178° |
| 2026-05-08 02:57 | 47.09965 | -124.20329 | 13007 ft | 397 kts | 178° |
| 2026-05-08 02:58 | 47.07200 | -124.20127 | 13007 ft | 397 kts | 178° |
| 2026-05-08 02:58 | 47.04450 | -124.19927 | 13007 ft | 397 kts | 178° |
| 2026-05-08 02:58 | 47.01694 | -124.19727 | 13007 ft | 397 kts | 178° |
| 2026-05-08 02:58 | 46.98959 | -124.19527 | 13007 ft | 396 kts | 178° |
| 2026-05-08 02:59 | 46.96205 | -124.19327 | 13007 ft | 397 kts | 178° |
| 2026-05-08 02:59 | 46.93445 | -124.19127 | 13007 ft | 396 kts | 178° |
| 2026-05-08 02:59 | 46.90677 | -124.18927 | 13007 ft | 397 kts | 178° |
| 2026-05-08 02:59 | 46.87928 | -124.18710 | 13003 ft | 397 kts | 176° |
| 2026-05-08 03:00 | 46.85172 | -124.17976 | 13004 ft | 399 kts | 166° |
| 2026-05-08 03:00 | 46.82588 | -124.16531 | 13003 ft | 399 kts | 155° |
| 2026-05-08 03:00 | 46.80238 | -124.14429 | 13004 ft | 401 kts | 144° |
| 2026-05-08 03:00 | 46.78177 | -124.11713 | 13005 ft | 402 kts | 133° |
| 2026-05-08 03:01 | 46.76482 | -124.08468 | 13004 ft | 403 kts | 122° |
| 2026-05-08 03:01 | 46.75227 | -124.04815 | 13005 ft | 404 kts | 111° |
| 2026-05-08 03:01 | 46.74459 | -124.00887 | 13005 ft | 405 kts | 101° |
| 2026-05-08 03:01 | 46.74204 | -123.96783 | 13006 ft | 405 kts | 90° |
| 2026-05-08 03:02 | 46.74472 | -123.92752 | 13005 ft | 404 kts | 79° |
| 2026-05-08 03:02 | 46.75258 | -123.88811 | 13005 ft | 404 kts | 68° |
| 2026-05-08 03:02 | 46.76528 | -123.85168 | 13005 ft | 402 kts | 57° |
| 2026-05-08 03:02 | 46.78214 | -123.81921 | 13008 ft | 402 kts | 49° |
| 2026-05-08 03:03 | 46.80032 | -123.78815 | 13008 ft | 403 kts | 49° |
| 2026-05-08 03:03 | 46.81830 | -123.75689 | 13007 ft | 402 kts | 49° |
| 2026-05-08 03:03 | 46.83537 | -123.72498 | 13008 ft | 404 kts | 55° |
| 2026-05-08 03:03 | 46.84874 | -123.68892 | 13003 ft | 403 kts | 66° |
| 2026-05-08 03:04 | 46.85720 | -123.65029 | 13003 ft | 404 kts | 77° |
| 2026-05-08 03:04 | 46.86062 | -123.60963 | 13003 ft | 403 kts | 88° |
| 2026-05-08 03:04 | 46.85878 | -123.56859 | 13003 ft | 404 kts | 99° |
| 2026-05-08 03:04 | 46.85182 | -123.52914 | 13002 ft | 403 kts | 109° |
| 2026-05-08 03:05 | 46.84221 | -123.49071 | 13009 ft | 405 kts | 110° |
| 2026-05-08 03:05 | 46.83244 | -123.45223 | 13008 ft | 404 kts | 110° |
| 2026-05-08 03:05 | 46.82275 | -123.41374 | 13009 ft | 405 kts | 110° |
| 2026-05-08 03:05 | 46.81325 | -123.37569 | 13008 ft | 404 kts | 110° |
| 2026-05-08 03:06 | 46.80360 | -123.33685 | 13008 ft | 404 kts | 110° |
| 2026-05-08 03:06 | 46.79411 | -123.29853 | 13007 ft | 404 kts | 110° |
| 2026-05-08 03:06 | 46.78450 | -123.25974 | 13007 ft | 405 kts | 110° |
| 2026-05-08 03:06 | 46.77499 | -123.22127 | 13007 ft | 404 kts | 110° |
| 2026-05-08 03:07 | 46.76550 | -123.18291 | 13007 ft | 404 kts | 110° |
| 2026-05-08 03:07 | 46.75592 | -123.14424 | 13007 ft | 404 kts | 110° |
| 2026-05-08 03:07 | 46.74643 | -123.10597 | 13007 ft | 404 kts | 110° |
| 2026-05-08 03:07 | 46.73683 | -123.06732 | 13008 ft | 405 kts | 110° |
| 2026-05-08 03:08 | 46.72732 | -123.02903 | 13008 ft | 405 kts | 110° |
| 2026-05-08 03:08 | 46.71782 | -122.99086 | 13007 ft | 405 kts | 110° |
| 2026-05-08 03:08 | 46.70814 | -122.95207 | 13008 ft | 404 kts | 110° |
| 2026-05-08 03:08 | 46.69862 | -122.91393 | 13008 ft | 405 kts | 110° |
| 2026-05-08 03:09 | 46.68893 | -122.87521 | 13008 ft | 404 kts | 110° |
| 2026-05-08 03:09 | 46.67941 | -122.83720 | 13008 ft | 404 kts | 110° |
| 2026-05-08 03:09 | 46.66979 | -122.79885 | 13008 ft | 404 kts | 110° |
| 2026-05-08 03:09 | 46.66014 | -122.76049 | 13008 ft | 405 kts | 110° |
| 2026-05-08 03:10 | 46.65043 | -122.72190 | 13009 ft | 405 kts | 110° |
| 2026-05-08 03:10 | 46.64074 | -122.68349 | 13010 ft | 405 kts | 110° |
| 2026-05-08 03:10 | 46.63111 | -122.64536 | 13009 ft | 405 kts | 110° |
| 2026-05-08 03:10 | 46.62127 | -122.60647 | 13009 ft | 405 kts | 110° |
| 2026-05-08 03:11 | 46.61164 | -122.56848 | 13009 ft | 404 kts | 110° |
| 2026-05-08 03:11 | 46.60287 | -122.52972 | 13010 ft | 404 kts | 103° |
| 2026-05-08 03:11 | 46.59878 | -122.48916 | 13007 ft | 404 kts | 92° |
| 2026-05-08 03:11 | 46.59989 | -122.44839 | 13007 ft | 405 kts | 82° |
| 2026-05-08 03:12 | 46.60615 | -122.40887 | 13006 ft | 404 kts | 71° |
| 2026-05-08 03:12 | 46.61734 | -122.37170 | 13006 ft | 403 kts | 60° |
| 2026-05-08 03:12 | 46.63314 | -122.33803 | 13005 ft | 402 kts | 50° |
| 2026-05-08 03:12 | 46.65306 | -122.30910 | 13006 ft | 403 kts | 39° |
| 2026-05-08 03:13 | 46.67604 | -122.28632 | 13007 ft | 400 kts | 28° |
| 2026-05-08 03:13 | 46.70100 | -122.26834 | 13009 ft | 400 kts | 25° |
| 2026-05-08 03:13 | 46.72596 | -122.25085 | 13008 ft | 400 kts | 25° |
| 2026-05-08 03:13 | 46.75081 | -122.23304 | 13008 ft | 400 kts | 25° |
| 2026-05-08 03:14 | 46.77570 | -122.21488 | 13008 ft | 400 kts | 26° |
| 2026-05-08 03:14 | 46.80074 | -122.19637 | 13008 ft | 400 kts | 26° |
| 2026-05-08 03:14 | 46.82552 | -122.17788 | 13008 ft | 400 kts | 26° |
| 2026-05-08 03:14 | 46.85011 | -122.15940 | 13008 ft | 401 kts | 26° |
| 2026-05-08 03:15 | 46.87524 | -122.14296 | 13008 ft | 398 kts | 18° |
| 2026-05-08 03:15 | 46.90242 | -122.13319 | 13006 ft | 397 kts | 7° |
| 2026-05-08 03:15 | 46.92979 | -122.13095 | 13005 ft | 396 kts | 356° |
| 2026-05-08 03:15 | 46.95705 | -122.13607 | 13005 ft | 394 kts | 346° |
| 2026-05-08 03:16 | 46.98295 | -122.14822 | 13005 ft | 392 kts | 336° |
| 2026-05-08 03:16 | 47.00791 | -122.16447 | 13008 ft | 393 kts | 334° |
| 2026-05-08 03:16 | 47.03262 | -122.18103 | 13008 ft | 393 kts | 334° |
| 2026-05-08 03:16 | 47.05768 | -122.19787 | 13008 ft | 392 kts | 334° |